Time;durP1;ratioP1;P1;durP2;ratioP2;P2;SDS_P1;SDS_P2;PMS_P1;PMS_P2;Temp;Humidity;BMP_temperature;BMP_pressure;BME280_temperature;BME280_humidity;BME280_pressure;Samples;Min_cycle;Max_cycle;Signal;HPM_P1;HPM_P2
2021/07/25 00:00:38;;;;;;;0.20;0.20;;;;;;;;;;5056503;28;20444;-65
2021/07/25 00:03:04;;;;;;;0.20;0.20;;;;;;;;;;5053828;28;20769;-65
2021/07/25 00:05:30;;;;;;;0.20;0.20;;;;;;;;;;5056135;28;20407;-64
2021/07/25 00:07:57;;;;;;;0.20;0.20;;;;;;;;;;5065426;28;20404;-65
2021/07/25 00:10:23;;;;;;;0.20;0.20;;;;;;;;;;5057893;28;20817;-64
2021/07/25 00:12:49;;;;;;;0.20;0.20;;;;;;;;;;5052487;28;20410;-65
2021/07/25 00:15:15;;;;;;;0.20;0.20;;;;;;;;;;5056069;28;20405;-65
2021/07/25 00:17:41;;;;;;;0.20;0.20;;;;;;;;;;5055446;28;20449;-65
2021/07/25 00:20:07;;;;;;;0.20;0.20;;;;;;;;;;5059496;28;20893;-65
2021/07/25 00:22:33;;;;;;;0.20;0.20;;;;;;;;;;5055916;28;20813;-65
2021/07/25 00:25:09;;;;;;;0.20;0.20;;;;;;;;;;5056363;28;20452;-64
2021/07/25 00:27:40;;;;;;;0.20;0.20;;;;;;;;;;5054263;28;21025;-63
2021/07/25 00:30:07;;;;;;;0.30;0.20;;;;;;;;;;5054907;28;20419;-64
2021/07/25 00:32:34;;;;;;;0.30;0.20;;;;;;;;;;5054117;28;20489;-64
2021/07/25 00:35:00;;;;;;;0.30;0.20;;;;;;;;;;5068105;28;20463;-64
2021/07/25 00:37:26;;;;;;;0.30;0.20;;;;;;;;;;5061144;28;20396;-63
2021/07/25 00:39:52;;;;;;;0.30;0.20;;;;;;;;;;5064199;28;20458;-64
2021/07/25 00:42:18;;;;;;;0.30;0.20;;;;;;;;;;5059651;28;20441;-64
2021/07/25 00:44:44;;;;;;;0.30;0.20;;;;;;;;;;5066385;28;20410;-63
2021/07/25 00:47:10;;;;;;;0.20;0.20;;;;;;;;;;5059373;28;20510;-65
2021/07/25 00:49:37;;;;;;;0.20;0.20;;;;;;;;;;5057710;28;20468;-64
2021/07/25 00:52:04;;;;;;;0.30;0.20;;;;;;;;;;5053012;28;20438;-64
2021/07/25 00:54:30;;;;;;;0.30;0.20;;;;;;;;;;5056866;28;20465;-64
2021/07/25 00:56:56;;;;;;;0.30;0.20;;;;;;;;;;5053334;28;20457;-64
2021/07/25 00:59:22;;;;;;;0.30;0.20;;;;;;;;;;5052999;28;20454;-64
2021/07/25 01:01:49;;;;;;;0.30;0.20;;;;;;;;;;5054733;28;20932;-64
2021/07/25 01:04:18;;;;;;;0.30;0.20;;;;;;;;;;5035247;28;20794;-64
2021/07/25 01:07:03;;;;;;;0.30;0.20;;;;;;;;;;5054141;28;21125;-64
2021/07/25 01:09:35;;;;;;;0.30;0.20;;;;;;;;;;5053625;28;20513;-64
2021/07/25 01:12:05;;;;;;;0.30;0.20;;;;;;;;;;5057454;28;20442;-65
2021/07/25 01:14:32;;;;;;;0.30;0.20;;;;;;;;;;5051514;28;20982;-64
2021/07/25 01:17:16;;;;;;;0.20;0.20;;;;;;;;;;5053501;28;20428;-64
2021/07/25 01:19:42;;;;;;;0.20;0.20;;;;;;;;;;5053836;28;20984;-66
2021/07/25 01:22:08;;;;;;;0.20;0.20;;;;;;;;;;5057583;28;20473;-65
2021/07/25 01:24:34;;;;;;;0.30;0.20;;;;;;;;;;5061019;28;20411;-65
2021/07/25 01:27:00;;;;;;;0.30;0.20;;;;;;;;;;5053261;28;20522;-63
2021/07/25 01:29:27;;;;;;;0.30;0.20;;;;;;;;;;5058256;28;20425;-64
2021/07/25 01:31:53;;;;;;;0.20;0.20;;;;;;;;;;5052832;28;20497;-64
2021/07/25 01:34:19;;;;;;;0.20;0.20;;;;;;;;;;5054378;28;20457;-64
2021/07/25 01:36:45;;;;;;;0.20;0.20;;;;;;;;;;5038843;28;20523;-64
2021/07/25 01:39:11;;;;;;;0.20;0.20;;;;;;;;;;5054553;28;20548;-64
2021/07/25 01:41:43;;;;;;;0.20;0.20;;;;;;;;;;5062818;28;20453;-65
2021/07/25 01:44:10;;;;;;;0.20;0.20;;;;;;;;;;5059418;28;20919;-64
2021/07/25 01:46:36;;;;;;;0.20;0.20;;;;;;;;;;5061266;28;20491;-65
2021/07/25 01:49:02;;;;;;;0.20;0.20;;;;;;;;;;5055103;28;20411;-65
2021/07/25 01:51:28;;;;;;;0.20;0.20;;;;;;;;;;5051042;28;20462;-65
2021/07/25 01:53:54;;;;;;;0.20;0.20;;;;;;;;;;5053191;28;20854;-65
2021/07/25 01:56:20;;;;;;;0.20;0.20;;;;;;;;;;5060798;28;20418;-65
2021/07/25 01:58:46;;;;;;;0.20;0.20;;;;;;;;;;5054324;28;20528;-65
2021/07/25 02:01:12;;;;;;;0.20;0.20;;;;;;;;;;5054297;28;20492;-65
2021/07/25 02:03:38;;;;;;;0.20;0.20;;;;;;;;;;5056899;28;20399;-65
2021/07/25 02:06:04;;;;;;;0.20;0.20;;;;;;;;;;5059509;28;20421;-65
2021/07/25 02:08:30;;;;;;;0.20;0.20;;;;;;;;;;5051003;28;20834;-64
2021/07/25 02:10:56;;;;;;;0.20;0.20;;;;;;;;;;5071421;28;20448;-65
2021/07/25 02:13:23;;;;;;;0.20;0.20;;;;;;;;;;5056974;28;20804;-64
2021/07/25 02:15:49;;;;;;;0.20;0.20;;;;;;;;;;5061827;28;20478;-64
2021/07/25 02:18:16;;;;;;;0.20;0.20;;;;;;;;;;5066353;28;20439;-64
2021/07/25 02:20:42;;;;;;;0.20;0.20;;;;;;;;;;5068363;28;20472;-64
2021/07/25 02:23:08;;;;;;;0.20;0.20;;;;;;;;;;5060489;28;20863;-64
2021/07/25 02:25:35;;;;;;;0.20;0.20;;;;;;;;;;5060649;28;20419;-64
2021/07/25 02:28:01;;;;;;;0.20;0.20;;;;;;;;;;5068355;28;20476;-64
2021/07/25 02:30:27;;;;;;;0.20;0.20;;;;;;;;;;5051599;28;20508;-67
2021/07/25 02:32:53;;;;;;;0.20;0.20;;;;;;;;;;5052308;28;20433;-64
2021/07/25 02:35:19;;;;;;;0.20;0.20;;;;;;;;;;5051939;28;20423;-64
2021/07/25 02:37:45;;;;;;;0.20;0.20;;;;;;;;;;5051794;28;20430;-64
2021/07/25 02:40:11;;;;;;;0.20;0.20;;;;;;;;;;5051593;28;20518;-64
2021/07/25 02:42:37;;;;;;;0.20;0.20;;;;;;;;;;5051951;28;20922;-65
2021/07/25 02:45:03;;;;;;;0.20;0.20;;;;;;;;;;5054260;28;20418;-65
2021/07/25 02:47:29;;;;;;;0.20;0.20;;;;;;;;;;5057206;28;20760;-65
2021/07/25 02:49:55;;;;;;;0.20;0.20;;;;;;;;;;5051598;28;20412;-65
2021/07/25 02:52:21;;;;;;;0.20;0.20;;;;;;;;;;5057814;28;20475;-64
2021/07/25 02:54:47;;;;;;;0.20;0.20;;;;;;;;;;5062908;28;20793;-64
2021/07/25 02:57:13;;;;;;;0.30;0.30;;;;;;;;;;5071283;28;20406;-65
2021/07/25 02:59:39;;;;;;;0.20;0.20;;;;;;;;;;5063808;28;20496;-65
2021/07/25 03:02:05;;;;;;;0.20;0.20;;;;;;;;;;5033758;28;20861;-64
2021/07/25 03:04:31;;;;;;;0.20;0.20;;;;;;;;;;5051313;28;20919;-63
2021/07/25 03:06:57;;;;;;;0.20;0.20;;;;;;;;;;5051116;28;20426;-63
2021/07/25 03:09:23;;;;;;;0.20;0.20;;;;;;;;;;5053295;28;20404;-63
2021/07/25 03:11:49;;;;;;;0.30;0.20;;;;;;;;;;5044834;28;20500;-63
2021/07/25 03:14:15;;;;;;;0.20;0.20;;;;;;;;;;5059912;28;20458;-63
2021/07/25 03:16:41;;;;;;;0.20;0.20;;;;;;;;;;5051261;28;20483;-63
2021/07/25 03:19:07;;;;;;;0.20;0.20;;;;;;;;;;5050824;28;20493;-63
2021/07/25 03:21:33;;;;;;;0.20;0.20;;;;;;;;;;5067377;28;20791;-63
2021/07/25 03:23:59;;;;;;;0.20;0.20;;;;;;;;;;5071744;28;20428;-64
2021/07/25 03:26:25;;;;;;;0.20;0.20;;;;;;;;;;5070901;28;20417;-64
2021/07/25 03:28:51;;;;;;;0.20;0.20;;;;;;;;;;5062495;28;20428;-64
2021/07/25 03:31:17;;;;;;;0.20;0.20;;;;;;;;;;5068793;23;20478;-63
2021/07/25 03:33:43;;;;;;;0.20;0.20;;;;;;;;;;5022043;28;20492;-63
2021/07/25 03:36:09;;;;;;;0.20;0.20;;;;;;;;;;5038043;28;20885;-63
2021/07/25 03:38:35;;;;;;;0.30;0.20;;;;;;;;;;5030771;28;20412;-63
2021/07/25 03:41:04;;;;;;;0.30;0.20;;;;;;;;;;5037280;28;20459;-63
2021/07/25 03:43:30;;;;;;;0.30;0.20;;;;;;;;;;5011679;28;20426;-63
2021/07/25 03:45:57;;;;;;;0.30;0.20;;;;;;;;;;5011575;28;20420;-63
2021/07/25 03:48:23;;;;;;;0.30;0.20;;;;;;;;;;5022406;28;20465;-63
2021/07/25 03:50:50;;;;;;;0.30;0.20;;;;;;;;;;5028210;28;20455;-63
2021/07/25 03:53:16;;;;;;;0.20;0.20;;;;;;;;;;5029576;28;20948;-63
2021/07/25 03:55:45;;;;;;;0.20;0.20;;;;;;;;;;5021430;28;20482;-62
2021/07/25 03:58:11;;;;;;;0.20;0.20;;;;;;;;;;5024444;28;20431;-63
2021/07/25 04:00:37;;;;;;;0.20;0.20;;;;;;;;;;5021854;28;20499;-63
2021/07/25 04:03:03;;;;;;;0.20;0.20;;;;;;;;;;5015772;28;20459;-62
2021/07/25 04:05:29;;;;;;;0.30;0.20;;;;;;;;;;5029706;28;20419;-63
2021/07/25 04:07:55;;;;;;;0.30;0.20;;;;;;;;;;5034551;28;20430;-63
2021/07/25 04:10:21;;;;;;;0.30;0.20;;;;;;;;;;5032327;28;20430;-62
2021/07/25 04:12:48;;;;;;;0.30;0.20;;;;;;;;;;5028613;28;20423;-62
2021/07/25 04:15:14;;;;;;;0.30;0.20;;;;;;;;;;5025578;28;20462;-62
2021/07/25 04:17:40;;;;;;;0.30;0.20;;;;;;;;;;5023070;28;20438;-63
2021/07/25 04:20:07;;;;;;;0.30;0.20;;;;;;;;;;5022675;28;20952;-63
2021/07/25 04:22:38;;;;;;;0.30;0.20;;;;;;;;;;5025786;28;20447;-62
2021/07/25 04:25:06;;;;;;;0.30;0.20;;;;;;;;;;5008490;28;20418;-63
2021/07/25 04:27:32;;;;;;;0.30;0.20;;;;;;;;;;5023081;28;20563;-63
2021/07/25 04:29:59;;;;;;;0.30;0.20;;;;;;;;;;5020669;28;20432;-63
2021/07/25 04:32:25;;;;;;;0.30;0.20;;;;;;;;;;5023939;28;20452;-63
2021/07/25 04:34:52;;;;;;;0.30;0.20;;;;;;;;;;5021358;28;20440;-63
2021/07/25 04:37:29;;;;;;;0.30;0.20;;;;;;;;;;4997367;28;20569;-63
2021/07/25 04:39:55;;;;;;;0.30;0.20;;;;;;;;;;5028037;28;20464;-63
2021/07/25 04:42:23;;;;;;;0.20;0.20;;;;;;;;;;5025855;28;20459;-63
2021/07/25 04:45:08;;;;;;;0.20;0.20;;;;;;;;;;5021924;28;20413;-63
2021/07/25 04:47:35;;;;;;;0.20;0.20;;;;;;;;;;5014355;28;20427;-63
2021/07/25 04:50:08;;;;;;;0.20;0.20;;;;;;;;;;5022246;28;20409;-63
2021/07/25 04:52:39;;;;;;;0.20;0.20;;;;;;;;;;5022190;28;20472;-63
2021/07/25 04:55:06;;;;;;;0.20;0.20;;;;;;;;;;5014729;28;20832;-63
2021/07/25 04:57:37;;;;;;;0.20;0.20;;;;;;;;;;5024194;28;20514;-63
2021/07/25 05:00:03;;;;;;;0.20;0.20;;;;;;;;;;5024227;28;20494;-63
2021/07/25 05:02:31;;;;;;;0.30;0.20;;;;;;;;;;5025027;28;20455;-63
2021/07/25 05:04:57;;;;;;;0.30;0.20;;;;;;;;;;5020916;28;20428;-63
2021/07/25 05:07:23;;;;;;;0.20;0.20;;;;;;;;;;5029708;28;20924;-63
2021/07/25 05:09:49;;;;;;;0.20;0.20;;;;;;;;;;5021816;28;20950;-63
2021/07/25 05:12:18;;;;;;;0.20;0.20;;;;;;;;;;5029001;28;20417;-63
2021/07/25 05:14:51;;;;;;;0.20;0.20;;;;;;;;;;5022252;28;20454;-63
2021/07/25 05:17:29;;;;;;;0.20;0.20;;;;;;;;;;5013961;28;20407;-63
2021/07/25 05:19:58;;;;;;;0.20;0.20;;;;;;;;;;5013717;28;20468;-63
2021/07/25 05:22:24;;;;;;;0.20;0.20;;;;;;;;;;5013919;28;21035;-64
2021/07/25 05:24:51;;;;;;;0.20;0.20;;;;;;;;;;5014386;28;20395;-63
2021/07/25 05:27:21;;;;;;;0.20;0.20;;;;;;;;;;5014110;28;20421;-63
2021/07/25 05:29:48;;;;;;;0.20;0.20;;;;;;;;;;5023956;28;21921;-63
2021/07/25 05:32:15;;;;;;;0.30;0.20;;;;;;;;;;5027622;28;20459;-63
2021/07/25 05:34:41;;;;;;;0.30;0.20;;;;;;;;;;5014083;28;21257;-63
2021/07/25 05:37:07;;;;;;;0.30;0.20;;;;;;;;;;5013687;28;20797;-63
2021/07/25 05:39:33;;;;;;;0.30;0.20;;;;;;;;;;5013176;28;20456;-63
2021/07/25 05:41:59;;;;;;;0.30;0.20;;;;;;;;;;5013440;28;20436;-63
2021/07/25 05:44:25;;;;;;;0.20;0.20;;;;;;;;;;5013544;28;20801;-63
2021/07/25 05:46:51;;;;;;;0.30;0.20;;;;;;;;;;5013424;28;20669;-63
2021/07/25 05:49:17;;;;;;;0.30;0.20;;;;;;;;;;5013189;28;20906;-63
2021/07/25 05:51:43;;;;;;;0.30;0.20;;;;;;;;;;5013239;28;20430;-63
2021/07/25 05:54:09;;;;;;;0.30;0.20;;;;;;;;;;5013316;28;20912;-63
2021/07/25 05:56:35;;;;;;;0.30;0.20;;;;;;;;;;5013369;28;20421;-63
2021/07/25 05:59:01;;;;;;;0.30;0.20;;;;;;;;;;5012880;28;20419;-63
2021/07/25 06:01:27;;;;;;;0.30;0.20;;;;;;;;;;5013217;28;20424;-63
2021/07/25 06:03:53;;;;;;;0.30;0.20;;;;;;;;;;5013273;28;20491;-63
2021/07/25 06:06:19;;;;;;;0.30;0.20;;;;;;;;;;5013253;28;20444;-65
2021/07/25 06:08:45;;;;;;;0.30;0.20;;;;;;;;;;5013323;28;20462;-63
2021/07/25 06:11:11;;;;;;;0.30;0.20;;;;;;;;;;5012667;28;20411;-63
2021/07/25 06:13:37;;;;;;;0.30;0.20;;;;;;;;;;5012971;28;20417;-63
2021/07/25 06:16:03;;;;;;;0.30;0.20;;;;;;;;;;5012967;28;20964;-63
2021/07/25 06:18:29;;;;;;;0.30;0.20;;;;;;;;;;5012865;28;20412;-62
2021/07/25 06:20:55;;;;;;;0.30;0.20;;;;;;;;;;5012795;28;20890;-63
2021/07/25 06:23:21;;;;;;;0.30;0.20;;;;;;;;;;5018688;28;20422;-63
2021/07/25 06:25:48;;;;;;;0.30;0.20;;;;;;;;;;5032529;28;20390;-63
2021/07/25 06:28:14;;;;;;;0.30;0.20;;;;;;;;;;5028853;28;20792;-63
2021/07/25 06:30:40;;;;;;;0.30;0.20;;;;;;;;;;5012279;28;20465;-63
2021/07/25 06:33:07;;;;;;;0.30;0.20;;;;;;;;;;5012431;28;20414;-63
2021/07/25 06:35:40;;;;;;;0.30;0.20;;;;;;;;;;5012763;28;20391;-63
2021/07/25 06:38:06;;;;;;;0.30;0.20;;;;;;;;;;5012485;28;20404;-63
2021/07/25 06:40:33;;;;;;;0.30;0.20;;;;;;;;;;5012244;28;20459;-62
2021/07/25 06:42:59;;;;;;;0.30;0.20;;;;;;;;;;5012572;28;20379;-63
2021/07/25 06:45:26;;;;;;;0.30;0.20;;;;;;;;;;5017880;28;20458;-63
2021/07/25 06:47:52;;;;;;;0.30;0.20;;;;;;;;;;5021394;28;21083;-62
2021/07/25 06:50:22;;;;;;;0.30;0.20;;;;;;;;;;5021954;28;20793;-63
2021/07/25 06:52:48;;;;;;;0.30;0.20;;;;;;;;;;5023238;28;20455;-63
2021/07/25 06:55:14;;;;;;;0.30;0.20;;;;;;;;;;5030856;28;20454;-63
2021/07/25 06:57:40;;;;;;;0.30;0.20;;;;;;;;;;5004573;28;20459;-63
2021/07/25 07:00:07;;;;;;;0.30;0.20;;;;;;;;;;5019277;28;20456;-63
2021/07/25 07:02:49;;;;;;;0.30;0.20;;;;;;;;;;5023123;28;20451;-62
2021/07/25 07:05:19;;;;;;;0.30;0.20;;;;;;;;;;5030483;28;20788;-63
2021/07/25 07:07:45;;;;;;;0.30;0.30;;;;;;;;;;5026662;28;20390;-63
2021/07/25 07:10:11;;;;;;;0.30;0.20;;;;;;;;;;5016300;28;20420;-63
2021/07/25 07:12:37;;;;;;;0.30;0.20;;;;;;;;;;5015355;28;20418;-63
2021/07/25 07:15:04;;;;;;;0.30;0.20;;;;;;;;;;5011539;28;20809;-63
2021/07/25 07:17:30;;;;;;;0.30;0.20;;;;;;;;;;5019065;28;20385;-63
2021/07/25 07:19:56;;;;;;;0.30;0.20;;;;;;;;;;5029223;28;20437;-62
2021/07/25 07:22:29;;;;;;;0.30;0.30;;;;;;;;;;5027975;28;20431;-63
2021/07/25 07:24:56;;;;;;;0.30;0.20;;;;;;;;;;5020494;28;20430;-63
2021/07/25 07:27:22;;;;;;;0.30;0.30;;;;;;;;;;5037968;28;20414;-63
2021/07/25 07:29:48;;;;;;;0.30;0.20;;;;;;;;;;5050518;28;20389;-63
2021/07/25 07:32:14;;;;;;;0.30;0.20;;;;;;;;;;5028711;28;20530;-63
2021/07/25 07:34:40;;;;;;;0.30;0.20;;;;;;;;;;5028998;28;20569;-63
2021/07/25 07:37:06;;;;;;;0.30;0.20;;;;;;;;;;5036315;28;20418;-63
2021/07/25 07:39:32;;;;;;;0.30;0.20;;;;;;;;;;5016522;28;20547;-63
2021/07/25 07:41:58;;;;;;;0.30;0.20;;;;;;;;;;5031023;28;20534;-63
2021/07/25 07:44:24;;;;;;;0.30;0.20;;;;;;;;;;5049148;28;20904;-63
2021/07/25 07:46:50;;;;;;;0.30;0.20;;;;;;;;;;5029254;28;20398;-63
2021/07/25 07:49:16;;;;;;;0.30;0.30;;;;;;;;;;5029178;28;20518;-63
2021/07/25 07:51:42;;;;;;;0.30;0.20;;;;;;;;;;5028469;28;20467;-63
2021/07/25 07:54:08;;;;;;;0.30;0.20;;;;;;;;;;5033452;28;20815;-63
2021/07/25 07:56:35;;;;;;;0.30;0.20;;;;;;;;;;5026478;28;20424;-62
2021/07/25 07:59:02;;;;;;;0.30;0.20;;;;;;;;;;5029475;28;20416;-63
2021/07/25 08:01:28;;;;;;;0.30;0.20;;;;;;;;;;5027758;28;20538;-63
2021/07/25 08:03:54;;;;;;;0.30;0.20;;;;;;;;;;5044825;28;20393;-62
2021/07/25 08:06:20;;;;;;;0.30;0.20;;;;;;;;;;5047239;28;20421;-63
2021/07/25 08:08:46;;;;;;;0.30;0.20;;;;;;;;;;5048675;28;20914;-64
2021/07/25 08:11:12;;;;;;;0.30;0.20;;;;;;;;;;5039085;28;20967;-63
2021/07/25 08:13:38;;;;;;;0.30;0.20;;;;;;;;;;5030303;28;20635;-64
2021/07/25 08:16:04;;;;;;;0.30;0.20;;;;;;;;;;5030302;28;20413;-63
2021/07/25 08:18:30;;;;;;;0.30;0.20;;;;;;;;;;5029655;28;20419;-63
2021/07/25 08:20:56;;;;;;;0.30;0.20;;;;;;;;;;5036594;28;20488;-64
2021/07/25 08:23:22;;;;;;;0.30;0.20;;;;;;;;;;5027922;28;20975;-64
2021/07/25 08:25:48;;;;;;;0.30;0.20;;;;;;;;;;5026742;28;20843;-64
2021/07/25 08:28:14;;;;;;;0.30;0.20;;;;;;;;;;5022601;28;20432;-64
2021/07/25 08:30:40;;;;;;;0.30;0.20;;;;;;;;;;5019945;28;21610;-64
2021/07/25 08:33:06;;;;;;;0.30;0.20;;;;;;;;;;5013300;28;20515;-64
2021/07/25 08:35:32;;;;;;;0.30;0.20;;;;;;;;;;5026564;28;20873;-64
2021/07/25 08:37:58;;;;;;;0.30;0.20;;;;;;;;;;5007057;28;20503;-64
2021/07/25 08:40:25;;;;;;;0.30;0.20;;;;;;;;;;5035738;28;20476;-64
2021/07/25 08:43:05;;;;;;;0.30;0.20;;;;;;;;;;5023053;28;20451;-64
2021/07/25 08:45:31;;;;;;;0.30;0.20;;;;;;;;;;5027320;28;20436;-64
2021/07/25 08:48:03;;;;;;;0.30;0.20;;;;;;;;;;5028903;28;20529;-63
2021/07/25 08:50:29;;;;;;;0.30;0.20;;;;;;;;;;5038292;28;20418;-64
2021/07/25 08:52:55;;;;;;;0.30;0.20;;;;;;;;;;5012706;28;21097;-64
2021/07/25 08:55:22;;;;;;;0.30;0.20;;;;;;;;;;5020163;28;20430;-64
2021/07/25 08:57:50;;;;;;;0.30;0.20;;;;;;;;;;5023367;28;20853;-64
2021/07/25 09:00:17;;;;;;;0.30;0.20;;;;;;;;;;5033120;28;20469;-64
2021/07/25 09:02:43;;;;;;;0.30;0.20;;;;;;;;;;5025548;28;20475;-64
2021/07/25 09:05:13;;;;;;;0.30;0.20;;;;;;;;;;5029831;28;20420;-63
2021/07/25 09:07:40;;;;;;;0.30;0.20;;;;;;;;;;4996493;28;20916;-63
2021/07/25 09:10:08;;;;;;;0.30;0.20;;;;;;;;;;5028203;28;20821;-63
2021/07/25 09:12:35;;;;;;;0.30;0.20;;;;;;;;;;5013247;28;20556;-63
2021/07/25 09:15:07;;;;;;;0.30;0.20;;;;;;;;;;5013667;28;20519;-62
2021/07/25 09:17:33;;;;;;;0.30;0.20;;;;;;;;;;5030002;28;20502;-63
2021/07/25 09:20:11;;;;;;;0.30;0.20;;;;;;;;;;5037036;28;20472;-63
2021/07/25 09:22:39;;;;;;;0.30;0.20;;;;;;;;;;5036272;28;20435;-62
2021/07/25 09:25:05;;;;;;;0.30;0.20;;;;;;;;;;5032666;28;20393;-62
2021/07/25 09:27:31;;;;;;;0.30;0.20;;;;;;;;;;5036831;28;20997;-62
2021/07/25 09:29:57;;;;;;;0.30;0.20;;;;;;;;;;5037811;28;20431;-63
2021/07/25 09:32:23;;;;;;;0.30;0.20;;;;;;;;;;5056894;23;20641;-63
2021/07/25 09:34:50;;;;;;;0.30;0.20;;;;;;;;;;5036744;28;20934;-63
2021/07/25 09:37:20;;;;;;;0.30;0.20;;;;;;;;;;5040723;28;20399;-63
2021/07/25 09:39:48;;;;;;;0.30;0.20;;;;;;;;;;5045346;28;20489;-63
2021/07/25 09:42:14;;;;;;;0.30;0.20;;;;;;;;;;5044275;28;20512;-62
2021/07/25 09:44:53;;;;;;;0.30;0.20;;;;;;;;;;5032731;28;20395;-62
2021/07/25 09:47:38;;;;;;;0.30;0.20;;;;;;;;;;5038913;28;20449;-63
2021/07/25 09:50:06;;;;;;;0.30;0.20;;;;;;;;;;5039208;28;20426;-62
2021/07/25 09:52:32;;;;;;;0.30;0.20;;;;;;;;;;5034699;28;20501;-64
2021/07/25 09:54:59;;;;;;;0.30;0.20;;;;;;;;;;5044916;28;20453;-64
2021/07/25 09:57:25;;;;;;;0.30;0.20;;;;;;;;;;5035112;28;20799;-65
2021/07/25 09:59:52;;;;;;;0.30;0.20;;;;;;;;;;5034195;28;20452;-64
2021/07/25 10:02:38;;;;;;;0.30;0.20;;;;;;;;;;5031745;28;20850;-65
2021/07/25 10:05:07;;;;;;;0.20;0.20;;;;;;;;;;5030887;28;20473;-65
2021/07/25 10:07:34;;;;;;;0.20;0.20;;;;;;;;;;5029483;28;20883;-64
2021/07/25 10:10:00;;;;;;;0.30;0.20;;;;;;;;;;5031974;28;20430;-64
2021/07/25 10:12:28;;;;;;;0.30;0.20;;;;;;;;;;5038817;28;20421;-65
2021/07/25 10:14:54;;;;;;;0.30;0.20;;;;;;;;;;5042126;28;20791;-64
2021/07/25 10:17:21;;;;;;;0.30;0.20;;;;;;;;;;5043554;28;20500;-64
2021/07/25 10:19:47;;;;;;;0.30;0.20;;;;;;;;;;5051516;28;20496;-65
2021/07/25 10:22:14;;;;;;;0.30;0.20;;;;;;;;;;5052304;28;20419;-64
2021/07/25 10:24:40;;;;;;;0.30;0.20;;;;;;;;;;5051851;28;20406;-64
2021/07/25 10:27:06;;;;;;;0.30;0.20;;;;;;;;;;5052028;28;20399;-64
2021/07/25 10:29:33;;;;;;;0.30;0.20;;;;;;;;;;5051928;28;20442;-65
2021/07/25 10:32:00;;;;;;;0.30;0.20;;;;;;;;;;5051517;28;20954;-63
2021/07/25 10:34:30;;;;;;;0.30;0.20;;;;;;;;;;5052324;28;20996;-63
2021/07/25 10:36:56;;;;;;;0.23;0.20;;;;;;;;;;5051742;28;20414;-63
2021/07/25 10:39:25;;;;;;;0.20;0.20;;;;;;;;;;5051515;28;20448;-63
2021/07/25 10:41:52;;;;;;;0.20;0.20;;;;;;;;;;5051371;28;20431;-62
2021/07/25 10:44:19;;;;;;;0.20;0.20;;;;;;;;;;5051833;28;20884;-62
2021/07/25 10:46:45;;;;;;;0.20;0.20;;;;;;;;;;5052040;28;20416;-62
2021/07/25 10:49:15;;;;;;;0.20;0.20;;;;;;;;;;5051347;28;20388;-63
2021/07/25 10:51:57;;;;;;;0.20;0.20;;;;;;;;;;5051877;28;20409;-60
2021/07/25 10:54:23;;;;;;;0.20;0.20;;;;;;;;;;5051449;28;20406;-62
2021/07/25 10:57:10;;;;;;;0.20;0.20;;;;;;;;;;5034450;28;20418;-62
2021/07/25 10:59:37;;;;;;;0.20;0.20;;;;;;;;;;5051187;28;20493;-62
2021/07/25 11:02:03;;;;;;;0.20;0.20;;;;;;;;;;5051806;28;20437;-62
2021/07/25 11:05:01;;;;;;;0.20;0.20;;;;;;;;;;5051004;28;20894;-62
2021/07/25 11:07:26;;;;;;;0.20;0.20;;;;;;;;;;5051549;28;20646;-62
2021/07/25 11:09:56;;;;;;;0.30;0.20;;;;;;;;;;5051179;28;20774;-62
2021/07/25 11:12:22;;;;;;;0.30;0.20;;;;;;;;;;5051054;28;20434;-63
2021/07/25 11:14:58;;;;;;;0.20;0.20;;;;;;;;;;5051264;28;20414;-63
2021/07/25 11:17:42;;;;;;;0.20;0.20;;;;;;;;;;5050838;28;21097;-63
2021/07/25 11:20:08;;;;;;;0.30;0.20;;;;;;;;;;5050891;28;20468;-63
2021/07/25 11:22:44;;;;;;;0.30;0.20;;;;;;;;;;5051029;28;20511;-62
2021/07/25 11:25:10;;;;;;;0.30;0.27;;;;;;;;;;5050874;28;20475;-63
2021/07/25 11:27:45;;;;;;;0.30;0.20;;;;;;;;;;5050512;28;20385;-65
2021/07/25 11:30:11;;;;;;;0.30;0.20;;;;;;;;;;5050970;28;20438;-65
2021/07/25 11:32:37;;;;;;;0.30;0.20;;;;;;;;;;5051017;28;20452;-64
2021/07/25 11:35:04;;;;;;;0.30;0.20;;;;;;;;;;5051217;28;20396;-64
2021/07/25 11:37:35;;;;;;;0.30;0.20;;;;;;;;;;5050504;28;20406;-64
2021/07/25 11:40:01;;;;;;;0.30;0.20;;;;;;;;;;5051161;28;20488;-64
2021/07/25 11:42:27;;;;;;;0.30;0.20;;;;;;;;;;5051334;28;20484;-64
2021/07/25 11:44:54;;;;;;;0.30;0.20;;;;;;;;;;5051132;28;20859;-65
2021/07/25 11:47:27;;;;;;;0.30;0.20;;;;;;;;;;5051031;28;20405;-64
2021/07/25 11:49:53;;;;;;;0.30;0.20;;;;;;;;;;5050476;28;20437;-64
2021/07/25 11:52:19;;;;;;;0.30;0.20;;;;;;;;;;5050888;28;20409;-64
2021/07/25 11:54:45;;;;;;;0.30;0.20;;;;;;;;;;5050880;28;20425;-64
2021/07/25 11:57:12;;;;;;;0.30;0.20;;;;;;;;;;5050995;28;20422;-64
2021/07/25 11:59:39;;;;;;;0.30;0.20;;;;;;;;;;5050470;28;20454;-64
2021/07/25 12:02:06;;;;;;;0.30;0.30;;;;;;;;;;5050368;28;20641;-64
2021/07/25 12:04:33;;;;;;;0.30;0.20;;;;;;;;;;5032924;28;20787;-64
2021/07/25 12:07:04;;;;;;;0.30;0.20;;;;;;;;;;5050891;28;20408;-64
2021/07/25 12:09:31;;;;;;;0.30;0.20;;;;;;;;;;5051146;28;20409;-64
2021/07/25 12:12:01;;;;;;;0.30;0.20;;;;;;;;;;5054477;28;20430;-64
2021/07/25 12:14:28;;;;;;;0.30;0.20;;;;;;;;;;5054769;28;20455;-65
2021/07/25 12:16:55;;;;;;;0.30;0.20;;;;;;;;;;5055155;28;20410;-64
2021/07/25 12:19:22;;;;;;;0.30;0.20;;;;;;;;;;5054305;28;20388;-64
2021/07/25 12:21:48;;;;;;;0.30;0.20;;;;;;;;;;5054333;28;20416;-64
2021/07/25 12:24:29;;;;;;;0.30;0.20;;;;;;;;;;5054396;28;20417;-64
2021/07/25 12:26:56;;;;;;;0.30;0.20;;;;;;;;;;5054496;28;20410;-64
2021/07/25 12:29:34;;;;;;;0.30;0.20;;;;;;;;;;5054235;28;20406;-63
2021/07/25 12:32:00;;;;;;;0.30;0.20;;;;;;;;;;5054124;28;20424;-64
2021/07/25 12:34:26;;;;;;;0.30;0.20;;;;;;;;;;5053768;28;20406;-64
2021/07/25 12:36:52;;;;;;;0.30;0.20;;;;;;;;;;5053837;28;20449;-64
2021/07/25 12:39:18;;;;;;;0.30;0.20;;;;;;;;;;5053854;28;20911;-64
2021/07/25 12:41:44;;;;;;;0.30;0.20;;;;;;;;;;5054511;28;21157;-64
2021/07/25 12:44:24;;;;;;;0.30;0.20;;;;;;;;;;5054054;28;20404;-64
2021/07/25 12:46:50;;;;;;;0.30;0.20;;;;;;;;;;5053879;28;20918;-64
2021/07/25 12:49:16;;;;;;;0.30;0.20;;;;;;;;;;5053501;28;20417;-62
2021/07/25 12:51:42;;;;;;;0.30;0.20;;;;;;;;;;5053937;28;20429;-63
2021/07/25 12:54:08;;;;;;;0.30;0.20;;;;;;;;;;5054305;28;20405;-64
2021/07/25 12:56:35;;;;;;;0.30;0.20;;;;;;;;;;5053305;28;20437;-66
2021/07/25 12:59:03;;;;;;;0.30;0.20;;;;;;;;;;5053444;28;20399;-65
2021/07/25 13:04:00;;;;;;;0.30;0.20;;;;;;;;;;5054071;28;20395;-63
2021/07/25 13:06:43;;;;;;;0.30;0.20;;;;;;;;;;5053680;28;20407;-63
2021/07/25 13:09:11;;;;;;;0.30;0.20;;;;;;;;;;5053191;28;20407;-63
2021/07/25 13:11:48;;;;;;;0.30;0.20;;;;;;;;;;5053586;28;20423;-64
2021/07/25 13:14:17;;;;;;;0.30;0.20;;;;;;;;;;5035430;28;20415;-63
2021/07/25 13:16:43;;;;;;;0.30;0.20;;;;;;;;;;5053631;28;20432;-63
2021/07/25 13:19:09;;;;;;;0.30;0.20;;;;;;;;;;5052949;28;20438;-64
2021/07/25 13:21:36;;;;;;;0.30;0.20;;;;;;;;;;5052086;28;20535;-66
2021/07/25 13:24:02;;;;;;;0.30;0.20;;;;;;;;;;5053593;28;20393;-62
2021/07/25 13:26:29;;;;;;;0.30;0.20;;;;;;;;;;5053014;28;20500;-63
2021/07/25 13:28:55;;;;;;;0.30;0.20;;;;;;;;;;5052818;28;20388;-63
2021/07/25 13:31:21;;;;;;;0.30;0.20;;;;;;;;;;5039562;28;20535;-63
2021/07/25 13:33:49;;;;;;;0.30;0.20;;;;;;;;;;5033452;28;20386;-63
2021/07/25 13:36:15;;;;;;;0.30;0.20;;;;;;;;;;5033111;28;20413;-63
2021/07/25 13:38:42;;;;;;;0.30;0.20;;;;;;;;;;5032668;28;20912;-63
2021/07/25 13:41:08;;;;;;;0.30;0.20;;;;;;;;;;5032769;28;20886;-63
2021/07/25 13:43:38;;;;;;;0.30;0.20;;;;;;;;;;5033190;28;20423;-63
2021/07/25 13:46:05;;;;;;;0.30;0.20;;;;;;;;;;5033166;28;20776;-62
2021/07/25 13:48:32;;;;;;;0.30;0.20;;;;;;;;;;5032795;28;20896;-63
2021/07/25 13:50:59;;;;;;;0.30;0.20;;;;;;;;;;5032564;28;20421;-63
2021/07/25 13:53:27;;;;;;;0.30;0.20;;;;;;;;;;5032423;28;20390;-63
2021/07/25 13:55:53;;;;;;;0.30;0.20;;;;;;;;;;5033278;28;20730;-63
2021/07/25 13:58:19;;;;;;;0.30;0.20;;;;;;;;;;5032721;28;20390;-64
2021/07/25 14:00:45;;;;;;;0.30;0.20;;;;;;;;;;5032729;28;20823;-64
2021/07/25 14:03:11;;;;;;;0.30;0.20;;;;;;;;;;5032100;28;20379;-64
2021/07/25 14:05:38;;;;;;;0.30;0.20;;;;;;;;;;5032786;28;20888;-63
2021/07/25 14:08:05;;;;;;;0.30;0.20;;;;;;;;;;5031973;28;20404;-63
2021/07/25 14:10:32;;;;;;;0.30;0.20;;;;;;;;;;5031273;28;20495;-65
2021/07/25 14:12:58;;;;;;;0.30;0.20;;;;;;;;;;5031281;28;20974;-64
2021/07/25 14:15:25;;;;;;;0.30;0.20;;;;;;;;;;5031854;28;20754;-62
2021/07/25 14:17:52;;;;;;;0.30;0.20;;;;;;;;;;5032698;28;20454;-64
2021/07/25 14:20:19;;;;;;;0.30;0.20;;;;;;;;;;5032645;28;20476;-62
2021/07/25 14:22:45;;;;;;;0.30;0.20;;;;;;;;;;5032449;28;20441;-63
2021/07/25 14:25:11;;;;;;;0.30;0.20;;;;;;;;;;5032109;28;20418;-62
2021/07/25 14:27:38;;;;;;;0.30;0.20;;;;;;;;;;5032013;28;20404;-63
2021/07/25 14:30:05;;;;;;;0.30;0.20;;;;;;;;;;5032151;28;20751;-66
2021/07/25 14:32:31;;;;;;;0.30;0.20;;;;;;;;;;5032013;28;20844;-62
2021/07/25 14:34:57;;;;;;;0.30;0.20;;;;;;;;;;5032675;28;20412;-63
2021/07/25 14:37:23;;;;;;;0.30;0.20;;;;;;;;;;5013848;28;20430;-63
2021/07/25 14:39:49;;;;;;;0.30;0.20;;;;;;;;;;5031496;28;20534;-63
2021/07/25 14:42:16;;;;;;;0.20;0.20;;;;;;;;;;5031836;28;20460;-63
2021/07/25 14:44:42;;;;;;;0.20;0.20;;;;;;;;;;5032019;28;20466;-63
2021/07/25 14:47:08;;;;;;;0.20;0.20;;;;;;;;;;5031672;28;20892;-64